Time;durP1;ratioP1;P1;durP2;ratioP2;P2;SDS_P1;SDS_P2;PMS_P1;PMS_P2;Temp;Humidity;BMP_temperature;BMP_pressure;BME280_temperature;BME280_humidity;BME280_pressure;Samples;Min_cycle;Max_cycle;Signal;HPM_P1;HPM_P2
2023/09/23 00:02:10;;;;;;;1.55;0.88;;;;;;;;;;7390012;19;20015;-70
2023/09/23 00:04:36;;;;;;;2.92;1.08;;;;;;;;;;7369246;19;20010;-71
2023/09/23 00:07:01;;;;;;;1.10;1.00;;;;;;;;;;7368418;19;20007;-70
2023/09/23 00:09:28;;;;;;;1.27;1.10;;;;;;;;;;7368786;19;20508;-70
2023/09/23 00:11:54;;;;;;;0.88;0.77;;;;;;;;;;7367576;19;20065;-70
2023/09/23 00:14:19;;;;;;;0.73;0.70;;;;;;;;;;7368878;19;20411;-70
2023/09/23 00:16:46;;;;;;;0.90;0.80;;;;;;;;;;7390727;19;20370;-71
2023/09/23 00:19:12;;;;;;;1.80;0.68;;;;;;;;;;7369358;19;20015;-70
2023/09/23 00:21:37;;;;;;;1.48;1.00;;;;;;;;;;7371051;19;20022;-70
2023/09/23 00:24:06;;;;;;;0.80;0.80;;;;;;;;;;7368463;19;20551;-68
2023/09/23 00:26:32;;;;;;;0.93;0.90;;;;;;;;;;7368781;19;20023;-71
2023/09/23 00:28:58;;;;;;;0.60;0.60;;;;;;;;;;7391119;19;20011;-70
2023/09/23 00:31:24;;;;;;;1.10;1.00;;;;;;;;;;7370227;19;20014;-70
2023/09/23 00:33:50;;;;;;;1.65;1.02;;;;;;;;;;7368777;19;20022;-70
2023/09/23 00:36:15;;;;;;;1.50;1.17;;;;;;;;;;7367946;19;20014;-71
2023/09/23 00:38:40;;;;;;;2.22;1.27;;;;;;;;;;7368790;19;20727;-70
2023/09/23 00:41:06;;;;;;;3.22;0.98;;;;;;;;;;7389723;19;20016;-71
2023/09/23 00:43:32;;;;;;;2.65;0.90;;;;;;;;;;7365570;19;20066;-71
2023/09/23 00:45:59;;;;;;;0.90;0.82;;;;;;;;;;7374098;19;20014;-71
2023/09/23 00:48:24;;;;;;;0.60;0.60;;;;;;;;;;7373686;19;20007;-70
2023/09/23 00:50:53;;;;;;;2.90;0.90;;;;;;;;;;7374753;19;20078;-71
2023/09/23 00:53:20;;;;;;;0.80;0.80;;;;;;;;;;7372770;19;20014;-71
2023/09/23 00:55:52;;;;;;;0.88;0.88;;;;;;;;;;7396552;19;20634;-71
2023/09/23 00:58:22;;;;;;;0.90;0.80;;;;;;;;;;7374142;19;20070;-71
2023/09/23 01:00:49;;;;;;;0.93;0.93;;;;;;;;;;7374145;19;20014;-70
2023/09/23 01:03:15;;;;;;;1.67;0.90;;;;;;;;;;7373707;19;20010;-71
2023/09/23 01:05:41;;;;;;;0.70;0.70;;;;;;;;;;7373421;19;20515;-71
2023/09/23 01:08:24;;;;;;;1.15;1.00;;;;;;;;;;7393771;19;20013;-70
2023/09/23 01:10:50;;;;;;;2.78;1.30;;;;;;;;;;7374458;19;20095;-70
2023/09/23 01:13:20;;;;;;;2.10;0.82;;;;;;;;;;7370969;19;20018;-71
2023/09/23 01:15:46;;;;;;;1.10;1.00;;;;;;;;;;7374509;19;20014;-71
2023/09/23 01:18:13;;;;;;;3.45;1.10;;;;;;;;;;7374295;19;20014;-70
2023/09/23 01:20:39;;;;;;;1.00;0.90;;;;;;;;;;7374523;19;20824;-70
2023/09/23 01:23:05;;;;;;;2.58;1.10;;;;;;;;;;7392235;19;19998;-69
2023/09/23 01:25:30;;;;;;;2.08;0.98;;;;;;;;;;7373438;19;20491;-69
2023/09/23 01:27:55;;;;;;;1.55;0.98;;;;;;;;;;7373370;19;20002;-69
2023/09/23 01:30:21;;;;;;;1.10;1.00;;;;;;;;;;7373512;19;20006;-69
2023/09/23 01:32:49;;;;;;;1.08;0.85;;;;;;;;;;7373121;19;20236;-70
2023/09/23 01:35:20;;;;;;;1.27;1.17;;;;;;;;;;7395530;19;19995;-70
2023/09/23 01:37:46;;;;;;;1.35;0.98;;;;;;;;;;7373916;19;20017;-70
2023/09/23 01:40:17;;;;;;;1.77;0.88;;;;;;;;;;7373936;19;20081;-70
2023/09/23 01:42:48;;;;;;;0.90;0.90;;;;;;;;;;7372075;19;20010;-70
2023/09/23 01:45:14;;;;;;;;;;;;;;;;;;7374428;19;20464;-69
2023/09/23 01:47:41;;;;;;;3.13;1.63;;;;;;;;;;7377914;19;19927;-69
2023/09/23 01:50:09;;;;;;;0.88;0.80;;;;;;;;;;7416009;19;20006;-69
2023/09/23 01:52:34;;;;;;;1.30;0.85;;;;;;;;;;7386169;19;20589;-70
2023/09/23 01:55:00;;;;;;;2.10;1.10;;;;;;;;;;7376708;19;20007;-70
2023/09/23 01:57:25;;;;;;;0.85;0.82;;;;;;;;;;7374869;19;20252;-70
2023/09/23 01:59:50;;;;;;;2.03;1.00;;;;;;;;;;7374734;19;20011;-70
2023/09/23 02:02:17;;;;;;;1.30;1.00;;;;;;;;;;7384832;19;20011;-70
2023/09/23 02:04:43;;;;;;;3.08;1.13;;;;;;;;;;7394580;19;19999;-70
2023/09/23 02:07:10;;;;;;;0.90;0.90;;;;;;;;;;7370657;19;20017;-70
2023/09/23 02:09:37;;;;;;;2.53;1.20;;;;;;;;;;7373227;19;20480;-70
2023/09/23 02:12:03;;;;;;;0.90;0.80;;;;;;;;;;7370888;19;20025;-70
2023/09/23 02:14:29;;;;;;;1.20;0.90;;;;;;;;;;7372339;19;20006;-70
2023/09/23 02:16:55;;;;;;;0.70;0.70;;;;;;;;;;7394091;19;20003;-70
2023/09/23 02:19:21;;;;;;;0.77;0.77;;;;;;;;;;7372130;19;20020;-70
2023/09/23 02:21:47;;;;;;;2.50;1.20;;;;;;;;;;7370518;19;20021;-71
2023/09/23 02:24:12;;;;;;;1.13;1.02;;;;;;;;;;7370514;19;20025;-70
2023/09/23 02:26:38;;;;;;;1.08;0.98;;;;;;;;;;7371599;19;20508;-70
2023/09/23 02:29:04;;;;;;;1.95;1.30;;;;;;;;;;7393891;19;20002;-70
2023/09/23 02:31:31;;;;;;;1.55;1.10;;;;;;;;;;7370870;19;20006;-70
2023/09/23 02:33:57;;;;;;;3.83;1.23;;;;;;;;;;7370408;19;20085;-69
2023/09/23 02:36:22;;;;;;;1.08;0.88;;;;;;;;;;7371198;19;20492;-70
2023/09/23 02:38:48;;;;;;;4.93;1.20;;;;;;;;;;7372865;19;20002;-70
2023/09/23 02:41:13;;;;;;;2.53;1.20;;;;;;;;;;7396555;19;19998;-70
2023/09/23 02:43:38;;;;;;;3.90;1.40;;;;;;;;;;7370016;19;20819;-70
2023/09/23 02:46:05;;;;;;;2.72;1.30;;;;;;;;;;7369866;19;20038;-70
2023/09/23 02:48:30;;;;;;;5.15;1.48;;;;;;;;;;7369554;19;20006;-70
2023/09/23 02:50:58;;;;;;;2.08;1.30;;;;;;;;;;7369276;19;20088;-70
2023/09/23 02:53:24;;;;;;;2.28;1.30;;;;;;;;;;7367592;19;20471;-71
2023/09/23 02:56:04;;;;;;;2.40;1.33;;;;;;;;;;7391165;19;20002;-70
2023/09/23 02:58:29;;;;;;;3.10;1.40;;;;;;;;;;7368426;19;20006;-70
2023/09/23 03:00:57;;;;;;;1.67;1.30;;;;;;;;;;7368639;19;20010;-70
2023/09/23 03:03:24;;;;;;;1.48;1.27;;;;;;;;;;7368304;19;20006;-70
2023/09/23 03:05:55;;;;;;;1.83;1.45;;;;;;;;;;7369010;19;20057;-70
2023/09/23 03:08:26;;;;;;;3.33;1.30;;;;;;;;;;7364196;19;20002;-70
2023/09/23 03:10:52;;;;;;;;;;;;;;;;;;7391294;19;20081;-70
2023/09/23 03:13:21;;;;;;;2.63;1.50;;;;;;;;;;7366130;19;19918;-69
2023/09/23 03:15:53;;;;;;;2.00;1.20;;;;;;;;;;7369023;19;20543;-69
2023/09/23 03:18:29;;;;;;;2.13;1.60;;;;;;;;;;7369667;19;20025;-69
2023/09/23 03:20:55;;;;;;;1.65;1.40;;;;;;;;;;7369495;19;20033;-70
2023/09/23 03:23:21;;;;;;;1.98;1.40;;;;;;;;;;7365771;19;20013;-69
2023/09/23 03:25:47;;;;;;;1.42;1.13;;;;;;;;;;7390576;19;20557;-69
2023/09/23 03:28:17;;;;;;;2.00;1.38;;;;;;;;;;7366709;19;20011;-71
2023/09/23 03:30:49;;;;;;;2.00;1.60;;;;;;;;;;7368389;19;20119;-70
2023/09/23 03:33:21;;;;;;;2.47;1.60;;;;;;;;;;7367582;19;20026;-69
2023/09/23 03:35:46;;;;;;;3.20;1.55;;;;;;;;;;7368247;19;20030;-69
2023/09/23 03:38:12;;;;;;;2.88;1.63;;;;;;;;;;7390005;19;20015;-68
2023/09/23 03:40:38;;;;;;;4.32;1.50;;;;;;;;;;7369566;19;20113;-70
2023/09/23 03:43:04;;;;;;;1.73;1.33;;;;;;;;;;7381660;19;20018;-69
2023/09/23 03:45:34;;;;;;;5.63;2.03;;;;;;;;;;7384408;19;20379;-69
2023/09/23 03:47:59;;;;;;;2.58;1.35;;;;;;;;;;7369880;19;20546;-69
2023/09/23 03:50:24;;;;;;;3.08;1.58;;;;;;;;;;7368579;19;20011;-70
2023/09/23 03:52:51;;;;;;;1.95;1.48;;;;;;;;;;7388787;19;20010;-69
2023/09/23 03:55:18;;;;;;;2.90;1.52;;;;;;;;;;7367746;19;20099;-70
2023/09/23 03:57:44;;;;;;;2.35;1.60;;;;;;;;;;7366992;19;20472;-70
2023/09/23 04:00:16;;;;;;;3.03;1.50;;;;;;;;;;7367410;19;20010;-69
2023/09/23 04:02:41;;;;;;;2.92;1.60;;;;;;;;;;7366876;19;20102;-70
2023/09/23 04:05:07;;;;;;;9.18;4.85;;;;;;;;;;7389096;19;20443;-70
2023/09/23 04:07:32;;;;;;;13.52;7.53;;;;;;;;;;7365621;19;20062;-70
2023/09/23 04:09:58;;;;;;;2.20;1.35;;;;;;;;;;7366865;19;20411;-69
2023/09/23 04:12:23;;;;;;;2.13;1.50;;;;;;;;;;7365980;19;20687;-69
2023/09/23 04:14:49;;;;;;;2.65;1.40;;;;;;;;;;7366746;19;20050;-69
2023/09/23 04:17:15;;;;;;;2.75;1.70;;;;;;;;;;7388992;19;20496;-68
2023/09/23 04:19:40;;;;;;;2.92;1.63;;;;;;;;;;7366414;19;20010;-69
2023/09/23 04:22:05;;;;;;;5.78;1.80;;;;;;;;;;7364052;19;20018;-69
2023/09/23 04:24:31;;;;;;;3.17;1.83;;;;;;;;;;7364887;19;20011;-69
2023/09/23 04:26:57;;;;;;;3.30;1.60;;;;;;;;;;7366094;19;20474;-70
2023/09/23 04:29:23;;;;;;;2.13;1.60;;;;;;;;;;7367100;19;20015;-69
2023/09/23 04:31:49;;;;;;;3.05;1.65;;;;;;;;;;7388460;19;20017;-69
2023/09/23 04:34:14;;;;;;;2.75;1.60;;;;;;;;;;7364177;19;20007;-69
2023/09/23 04:36:40;;;;;;;3.45;1.80;;;;;;;;;;7365992;19;20002;-69
2023/09/23 04:39:06;;;;;;;2.30;1.73;;;;;;;;;;7367042;19;20006;-69
2023/09/23 04:41:32;;;;;;;3.80;1.70;;;;;;;;;;7365976;19;20651;-69
2023/09/23 04:43:57;;;;;;;4.10;1.70;;;;;;;;;;7388415;19;20014;-69
2023/09/23 04:46:23;;;;;;;3.72;1.77;;;;;;;;;;7365905;19;20013;-69
2023/09/23 04:48:49;;;;;;;2.42;1.60;;;;;;;;;;7366025;19;20022;-69
2023/09/23 04:51:14;;;;;;;5.30;1.80;;;;;;;;;;7365935;19;20032;-71
2023/09/23 04:53:39;;;;;;;3.15;1.90;;;;;;;;;;7364295;19;20435;-69
2023/09/23 04:56:16;;;;;;;4.40;1.90;;;;;;;;;;7388264;19;20023;-69
2023/09/23 04:58:42;;;;;;;4.82;1.77;;;;;;;;;;7366638;19;20006;-69
2023/09/23 05:01:07;;;;;;;4.68;1.80;;;;;;;;;;7366744;19;20534;-69
2023/09/23 05:03:33;;;;;;;5.05;2.63;;;;;;;;;;7365221;19;20509;-70
2023/09/23 05:05:58;;;;;;;10.70;5.15;;;;;;;;;;7365486;19;20018;-69
2023/09/23 05:08:23;;;;;;;5.57;3.28;;;;;;;;;;7358222;19;20014;-69
2023/09/23 05:10:49;;;;;;;3.75;2.08;;;;;;;;;;7387336;19;20015;-69
2023/09/23 05:13:17;;;;;;;4.03;1.80;;;;;;;;;;7362629;19;20082;-69
2023/09/23 05:15:43;;;;;;;3.08;1.83;;;;;;;;;;7364606;19;20003;-69
2023/09/23 05:18:08;;;;;;;2.67;1.63;;;;;;;;;;7365821;19;20003;-69
2023/09/23 05:20:34;;;;;;;3.80;1.70;;;;;;;;;;7365267;19;20016;-69
2023/09/23 05:23:05;;;;;;;2.53;1.70;;;;;;;;;;7384793;19;20003;-69
2023/09/23 05:25:31;;;;;;;2.67;1.90;;;;;;;;;;7364999;19;20003;-69
2023/09/23 05:27:57;;;;;;;2.95;1.70;;;;;;;;;;7365080;19;20014;-70
2023/09/23 05:30:23;;;;;;;5.28;2.10;;;;;;;;;;7365561;19;20010;-70
2023/09/23 05:32:49;;;;;;;2.92;1.75;;;;;;;;;;7371137;19;20305;-69
2023/09/23 05:35:14;;;;;;;4.22;2.08;;;;;;;;;;7394390;19;20006;-70
2023/09/23 05:37:40;;;;;;;4.18;2.25;;;;;;;;;;7375853;19;20030;-69
2023/09/23 05:40:25;;;;;;;;;;;;;;;;;;;;;
2023/09/23 05:42:45;;;;;;;2.90;1.92;;;;;;;;;;7392826;19;20316;-69
2023/09/23 05:45:11;;;;;;;5.78;2.20;;;;;;;;;;7374585;19;20007;-69
2023/09/23 05:47:36;;;;;;;4.72;2.20;;;;;;;;;;7372335;19;20457;-70
2023/09/23 05:50:03;;;;;;;4.90;2.00;;;;;;;;;;7394755;19;20030;-70
2023/09/23 05:52:30;;;;;;;4.03;2.13;;;;;;;;;;7369645;19;21020;-70
2023/09/23 05:54:56;;;;;;;3.88;2.20;;;;;;;;;;7371272;19;20011;-70
2023/09/23 05:57:21;;;;;;;6.93;2.47;;;;;;;;;;7371075;19;20029;-70
2023/09/23 05:59:47;;;;;;;5.78;2.83;;;;;;;;;;7371898;19;20010;-69
2023/09/23 06:02:12;;;;;;;4.88;2.75;;;;;;;;;;7392331;19;20066;-69
2023/09/23 06:04:37;;;;;;;5.45;3.03;;;;;;;;;;7371416;19;20732;-69
2023/09/23 06:07:04;;;;;;;5.28;2.72;;;;;;;;;;7369706;19;20062;-70
2023/09/23 06:09:29;;;;;;;6.82;2.55;;;;;;;;;;7371416;19;20421;-70
2023/09/23 06:11:55;;;;;;;9.60;4.80;;;;;;;;;;7369768;19;20014;-70
2023/09/23 06:14:20;;;;;;;7.22;3.78;;;;;;;;;;7370773;19;20022;-70
2023/09/23 06:16:47;;;;;;;6.63;2.80;;;;;;;;;;7393268;19;20002;-70
2023/09/23 06:19:12;;;;;;;3.50;2.42;;;;;;;;;;7371323;19;20388;-70
2023/09/23 06:21:38;;;;;;;6.57;3.00;;;;;;;;;;7370704;19;20021;-70
2023/09/23 06:24:03;;;;;;;4.30;2.60;;;;;;;;;;7369211;19;20010;-70
2023/09/23 06:26:29;;;;;;;4.78;2.60;;;;;;;;;;7370726;19;20007;-69
2023/09/23 06:28:54;;;;;;;4.68;2.72;;;;;;;;;;7393387;19;20033;-68
2023/09/23 06:31:19;;;;;;;4.00;2.42;;;;;;;;;;7370155;19;20025;-69
2023/09/23 06:33:45;;;;;;;4.07;2.50;;;;;;;;;;7369565;19;20124;-70
2023/09/23 06:36:10;;;;;;;3.97;2.30;;;;;;;;;;7369819;19;20030;-70
2023/09/23 06:38:35;;;;;;;4.97;2.15;;;;;;;;;;7371957;19;20373;-69
2023/09/23 06:41:01;;;;;;;3.50;2.17;;;;;;;;;;7396333;19;20480;-69
2023/09/23 06:43:26;;;;;;;4.55;2.10;;;;;;;;;;7371918;19;20345;-69
2023/09/23 06:45:53;;;;;;;3.78;2.15;;;;;;;;;;7372173;19;20022;-69
2023/09/23 06:48:19;;;;;;;3.67;1.92;;;;;;;;;;7369368;19;20051;-69
2023/09/23 06:50:44;;;;;;;4.15;2.20;;;;;;;;;;7369595;19;20039;-69
2023/09/23 06:53:09;;;;;;;4.53;2.10;;;;;;;;;;7389617;19;20460;-70
2023/09/23 06:55:34;;;;;;;4.30;1.90;;;;;;;;;;7369306;19;20002;-69
2023/09/23 06:58:00;;;;;;;4.20;1.88;;;;;;;;;;7368684;19;20010;-68
2023/09/23 07:00:25;;;;;;;6.75;2.70;;;;;;;;;;7369847;19;20427;-69
2023/09/23 07:02:51;;;;;;;4.47;1.77;;;;;;;;;;7367533;19;20017;-69
2023/09/23 07:05:16;;;;;;;4.60;2.35;;;;;;;;;;7378135;19;20010;-69
2023/09/23 07:07:41;;;;;;;5.65;2.00;;;;;;;;;;7384789;19;20010;-69
2023/09/23 07:10:08;;;;;;;5.93;1.90;;;;;;;;;;7370008;19;20114;-69
2023/09/23 07:12:34;;;;;;;5.15;2.08;;;;;;;;;;7367945;19;20066;-69
2023/09/23 07:14:59;;;;;;;5.38;2.25;;;;;;;;;;7368692;19;20493;-69
2023/09/23 07:17:27;;;;;;;5.60;2.00;;;;;;;;;;7370545;19;20023;-68
2023/09/23 07:19:52;;;;;;;4.80;2.08;;;;;;;;;;7391514;19;20317;-70
2023/09/23 07:22:18;;;;;;;2.50;1.80;;;;;;;;;;7366462;19;20024;-69
2023/09/23 07:24:43;;;;;;;3.35;1.90;;;;;;;;;;7369138;19;20006;-70
2023/09/23 07:27:09;;;;;;;3.10;1.77;;;;;;;;;;7368175;19;20590;-69
2023/09/23 07:29:34;;;;;;;3.88;1.90;;;;;;;;;;7368943;19;20510;-69
2023/09/23 07:31:59;;;;;;;4.18;1.70;;;;;;;;;;7393549;19;20287;-68
2023/09/23 07:34:25;;;;;;;4.32;1.95;;;;;;;;;;7374655;19;20014;-69
2023/09/23 07:36:50;;;;;;;3.58;1.80;;;;;;;;;;7370082;19;20426;-69
2023/09/23 07:39:16;;;;;;;5.15;2.00;;;;;;;;;;7368185;19;20006;-69
2023/09/23 07:41:42;;;;;;;4.13;1.90;;;;;;;;;;7367406;19;20013;-69
2023/09/23 07:44:07;;;;;;;3.03;1.70;;;;;;;;;;7389527;19;19999;-69
2023/09/23 07:46:32;;;;;;;3.45;1.70;;;;;;;;;;7367601;19;20025;-70
2023/09/23 07:48:58;;;;;;;3.38;1.52;;;;;;;;;;7368622;19;20040;-68
2023/09/23 07:51:23;;;;;;;3.55;1.70;;;;;;;;;;7367977;19;20002;-69
2023/09/23 07:53:51;;;;;;;3.92;1.75;;;;;;;;;;7365328;19;20072;-70
2023/09/23 07:56:17;;;;;;;4.28;1.88;;;;;;;;;;7368433;19;20031;-69
2023/09/23 07:58:42;;;;;;;3.53;1.73;;;;;;;;;;7389233;19;20025;-70
2023/09/23 08:01:08;;;;;;;2.17;1.50;;;;;;;;;;7368454;19;20356;-69
2023/09/23 08:03:33;;;;;;;4.10;1.77;;;;;;;;;;7367194;19;20023;-69
2023/09/23 08:05:58;;;;;;;2.25;1.45;;;;;;;;;;7367597;19;20013;-70
2023/09/23 08:08:24;;;;;;;1.73;1.50;;;;;;;;;;7366362;19;20007;-69
2023/09/23 08:10:50;;;;;;;3.80;1.50;;;;;;;;;;7388344;19;20005;-68
2023/09/23 08:13:16;;;;;;;4.85;2.50;;;;;;;;;;7363711;19;20002;-69
2023/09/23 08:15:41;;;;;;;4.63;2.88;;;;;;;;;;7366858;19;20006;-69
2023/09/23 08:18:07;;;;;;;3.63;1.40;;;;;;;;;;7367184;19;20046;-69
2023/09/23 08:20:32;;;;;;;4.53;1.70;;;;;;;;;;7366090;19;20002;-69
2023/09/23 08:22:57;;;;;;;3.17;1.80;;;;;;;;;;7385738;19;20372;-69
2023/09/23 08:25:23;;;;;;;2.75;1.42;;;;;;;;;;7366383;19;20014;-69
2023/09/23 08:27:49;;;;;;;3.88;1.60;;;;;;;;;;7364993;19;20014;-69
2023/09/23 08:30:17;;;;;;;3.28;1.40;;;;;;;;;;7366446;19;20017;-68
2023/09/23 08:32:42;;;;;;;2.67;1.40;;;;;;;;;;7365550;19;20510;-68
2023/09/23 08:35:08;;;;;;;2.25;1.80;;;;;;;;;;7388337;19;20011;-68
2023/09/23 08:37:34;;;;;;;3.40;1.60;;;;;;;;;;7365373;19;20081;-69
2023/09/23 08:40:00;;;;;;;3.78;1.60;;;;;;;;;;7366157;19;20007;-69
2023/09/23 08:42:27;;;;;;;2.92;1.33;;;;;;;;;;7365189;19;20857;-68
2023/09/23 08:44:53;;;;;;;2.47;1.60;;;;;;;;;;7366620;19;20030;-69
2023/09/23 08:47:19;;;;;;;2.83;1.60;;;;;;;;;;7366144;19;20019;-68
2023/09/23 08:49:48;;;;;;;3.67;1.58;;;;;;;;;;7387294;19;20058;-69
2023/09/23 08:52:16;;;;;;;6.00;1.80;;;;;;;;;;7364844;19;20073;-69
2023/09/23 08:54:42;;;;;;;5.45;1.40;;;;;;;;;;7366641;19;20046;-69
2023/09/23 08:57:07;;;;;;;2.40;1.33;;;;;;;;;;7365831;19;19998;-69
2023/09/23 08:59:33;;;;;;;1.77;1.30;;;;;;;;;;7366454;19;20483;-69
2023/09/23 09:01:58;;;;;;;4.88;1.50;;;;;;;;;;7387358;19;20009;-68
2023/09/23 09:04:24;;;;;;;3.92;1.67;;;;;;;;;;7364839;19;20453;-69
2023/09/23 09:06:54;;;;;;;2.55;1.60;;;;;;;;;;7370331;19;20500;-69
2023/09/23 09:09:19;;;;;;;4.43;1.92;;;;;;;;;;7373862;19;20015;-68
2023/09/23 09:11:48;;;;;;;3.20;1.67;;;;;;;;;;7371860;19;20462;-68
2023/09/23 09:14:17;;;;;;;3.65;1.45;;;;;;;;;;7394147;19;20007;-68
2023/09/23 09:16:43;;;;;;;4.05;1.60;;;;;;;;;;7372618;19;20041;-68
2023/09/23 09:19:08;;;;;;;3.60;1.58;;;;;;;;;;7373233;19;20014;-69
2023/09/23 09:21:34;;;;;;;2.38;1.30;;;;;;;;;;7372809;19;20031;-69
2023/09/23 09:24:00;;;;;;;2.75;1.38;;;;;;;;;;7370156;19;20479;-69
2023/09/23 09:26:25;;;;;;;4.05;1.27;;;;;;;;;;7371094;19;20081;-68
2023/09/23 09:28:51;;;;;;;3.50;1.30;;;;;;;;;;7394078;19;20007;-69
2023/09/23 09:31:17;;;;;;;3.75;1.38;;;;;;;;;;7372222;19;20054;-69
2023/09/23 09:33:47;;;;;;;3.40;1.45;;;;;;;;;;7372309;19;20006;-69
2023/09/23 09:36:17;;;;;;;1.48;1.30;;;;;;;;;;7371951;19;20382;-69
2023/09/23 09:38:43;;;;;;;4.18;1.50;;;;;;;;;;7372858;19;20841;-69
2023/09/23 09:41:16;;;;;;;2.85;1.48;;;;;;;;;;7400356;19;20007;-69
2023/09/23 09:43:45;;;;;;;4.13;1.40;;;;;;;;;;7383631;19;20450;-68
2023/09/23 09:46:13;;;;;;;4.20;1.45;;;;;;;;;;7381099;19;20010;-69
2023/09/23 09:48:41;;;;;;;4.85;1.77;;;;;;;;;;7373112;19;20003;-67
2023/09/23 09:51:07;;;;;;;2.13;1.38;;;;;;;;;;7372999;19;20099;-69
2023/09/23 09:53:36;;;;;;;2.30;1.23;;;;;;;;;;7369552;19;20006;-69
2023/09/23 09:56:03;;;;;;;3.42;1.50;;;;;;;;;;7393603;19;20019;-68
2023/09/23 09:58:38;;;;;;;6.40;1.40;;;;;;;;;;7371113;19;20020;-68
2023/09/23 10:01:04;;;;;;;3.67;1.60;;;;;;;;;;7371193;19;20007;-70
2023/09/23 10:03:29;;;;;;;5.32;1.50;;;;;;;;;;7369448;19;20337;-68
2023/09/23 10:06:00;;;;;;;2.92;1.50;;;;;;;;;;7371207;19;20418;-69
2023/09/23 10:08:25;;;;;;;3.40;1.40;;;;;;;;;;7369806;19;20076;-69
2023/09/23 10:10:58;;;;;;;3.17;1.35;;;;;;;;;;7393137;19;20002;-69
2023/09/23 10:13:31;;;;;;;2.47;1.40;;;;;;;;;;7368020;19;20010;-69
2023/09/23 10:16:06;;;;;;;2.92;1.40;;;;;;;;;;7370371;19;20026;-69
2023/09/23 10:18:37;;;;;;;4.10;1.40;;;;;;;;;;7371893;19;20452;-69
2023/09/23 10:21:03;;;;;;;4.32;1.35;;;;;;;;;;7371600;19;20355;-69
2023/09/23 10:23:35;;;;;;;5.15;1.30;;;;;;;;;;7367683;19;20440;-69
2023/09/23 10:26:14;;;;;;;3.70;1.48;;;;;;;;;;7391803;19;20070;-68
2023/09/23 10:28:40;;;;;;;2.35;1.05;;;;;;;;;;7365266;19;20007;-68
2023/09/23 10:31:06;;;;;;;2.58;1.20;;;;;;;;;;7369267;19;19998;-68
2023/09/23 10:33:34;;;;;;;2.42;1.20;;;;;;;;;;7367785;19;20017;-68
2023/09/23 10:36:00;;;;;;;4.50;1.30;;;;;;;;;;7371151;19;20006;-70
2023/09/23 10:38:30;;;;;;;1.33;1.17;;;;;;;;;;7370114;19;20003;-69
2023/09/23 10:40:56;;;;;;;4.22;1.30;;;;;;;;;;7391619;19;20011;-70
2023/09/23 10:43:22;;;;;;;3.45;1.23;;;;;;;;;;7367572;19;20012;-68
2023/09/23 10:45:58;;;;;;;2.50;1.30;;;;;;;;;;7371178;19;20385;-68
2023/09/23 10:48:24;;;;;;;2.78;1.20;;;;;;;;;;7368653;19;20006;-69
2023/09/23 10:50:51;;;;;;;2.30;1.17;;;;;;;;;;7369962;19;20118;-69
2023/09/23 10:53:18;;;;;;;4.55;1.40;;;;;;;;;;7377745;19;20006;-70
2023/09/23 10:55:43;;;;;;;2.97;1.42;;;;;;;;;;7392043;19;20078;-70
2023/09/23 10:58:09;;;;;;;2.65;1.30;;;;;;;;;;7369082;19;20482;-70
2023/09/23 11:00:38;;;;;;;1.52;1.25;;;;;;;;;;7370383;19;20014;-69
2023/09/23 11:03:10;;;;;;;2.17;1.20;;;;;;;;;;7368077;19;20009;-70
2023/09/23 11:05:37;;;;;;;2.63;1.50;;;;;;;;;;7369679;19;19998;-69
2023/09/23 11:08:10;;;;;;;5.10;1.50;;;;;;;;;;7382961;19;20010;-69
2023/09/23 11:10:38;;;;;;;2.78;1.40;;;;;;;;;;7369375;19;20013;-69
2023/09/23 11:13:11;;;;;;;1.90;1.20;;;;;;;;;;7366694;19;20007;-69
2023/09/23 11:15:38;;;;;;;2.75;1.45;;;;;;;;;;7369204;19;20030;-69
2023/09/23 11:18:10;;;;;;;2.88;1.38;;;;;;;;;;7368884;19;20182;-68
2023/09/23 11:20:38;;;;;;;2.05;1.30;;;;;;;;;;7377784;19;20103;-68
2023/09/23 11:23:05;;;;;;;2.78;1.35;;;;;;;;;;7396996;19;20481;-69
2023/09/23 11:25:36;;;;;;;3.22;1.20;;;;;;;;;;7371703;19;20114;-69
2023/09/23 11:28:02;;;;;;;3.67;1.35;;;;;;;;;;7365099;19;20007;-69
2023/09/23 11:30:28;;;;;;;3.25;1.40;;;;;;;;;;7369578;19;20515;-69
2023/09/23 11:32:56;;;;;;;3.78;1.40;;;;;;;;;;7370114;19;20006;-69
2023/09/23 11:35:22;;;;;;;2.25;1.25;;;;;;;;;;7369139;19;20320;-69
2023/09/23 11:37:48;;;;;;;3.35;1.35;;;;;;;;;;7390429;19;20055;-69
2023/09/23 11:40:14;;;;;;;3.78;1.60;;;;;;;;;;7368103;19;20030;-68
2023/09/23 11:42:40;;;;;;;4.03;1.48;;;;;;;;;;7367465;19;20003;-69
2023/09/23 11:45:06;;;;;;;3.13;1.50;;;;;;;;;;7367967;19;20007;-69
2023/09/23 11:47:31;;;;;;;5.72;2.42;;;;;;;;;;7367925;19;20005;-69
2023/09/23 11:49:56;;;;;;;2.30;1.20;;;;;;;;;;7389948;19;20007;-69
2023/09/23 11:52:22;;;;;;;1.67;1.25;;;;;;;;;;7366113;19;20449;-69
2023/09/23 11:54:48;;;;;;;2.00;1.20;;;;;;;;;;7367359;19;20107;-69
2023/09/23 11:57:13;;;;;;;3.35;1.50;;;;;;;;;;7366774;19;20014;-69
2023/09/23 11:59:39;;;;;;;3.72;1.55;;;;;;;;;;7369396;19;20010;-68
2023/09/23 12:02:05;;;;;;;1.58;1.25;;;;;;;;;;7389065;19;20026;-69
2023/09/23 12:04:30;;;;;;;2.88;1.42;;;;;;;;;;7367661;19;20002;-69
2023/09/23 12:06:56;;;;;;;2.83;1.33;;;;;;;;;;7367804;19;20007;-69
2023/09/23 12:09:23;;;;;;;2.00;1.15;;;;;;;;;;7367993;19;20102;-68
2023/09/23 12:11:50;;;;;;;3.72;1.75;;;;;;;;;;7367976;19;20679;-69
2023/09/23 12:14:15;;;;;;;3.00;1.58;;;;;;;;;;7385222;19;20017;-69
2023/09/23 12:16:40;;;;;;;4.72;1.55;;;;;;;;;;7374901;19;20058;-69
2023/09/23 12:19:06;;;;;;;2.17;1.10;;;;;;;;;;7367155;19;20006;-69
2023/09/23 12:21:31;;;;;;;2.47;1.10;;;;;;;;;;7367294;19;20467;-69
2023/09/23 12:23:59;;;;;;;2.58;1.20;;;;;;;;;;7366352;19;20003;-69
2023/09/23 12:26:28;;;;;;;5.43;1.33;;;;;;;;;;7367052;19;19998;-69
2023/09/23 12:28:54;;;;;;;2.83;1.30;;;;;;;;;;7387008;19;20011;-70
2023/09/23 12:31:20;;;;;;;2.75;1.20;;;;;;;;;;7365666;19;20656;-69
2023/09/23 12:33:45;;;;;;;1.63;1.02;;;;;;;;;;7366761;19;19999;-69
2023/09/23 12:36:11;;;;;;;4.10;1.20;;;;;;;;;;7366726;19;20024;-69
2023/09/23 12:38:37;;;;;;;3.20;1.35;;;;;;;;;;7367031;19;19992;-68
2023/09/23 12:41:02;;;;;;;3.45;1.25;;;;;;;;;;7394709;19;20002;-69
2023/09/23 12:43:28;;;;;;;2.65;1.30;;;;;;;;;;7369522;19;20006;-68
2023/09/23 12:45:53;;;;;;;2.25;1.20;;;;;;;;;;7374109;19;20006;-69
2023/09/23 12:48:18;;;;;;;3.30;1.33;;;;;;;;;;7372640;19;20040;-69
2023/09/23 12:50:44;;;;;;;2.20;1.10;;;;;;;;;;7373264;19;20002;-68
2023/09/23 12:53:09;;;;;;;2.92;1.42;;;;;;;;;;7392719;19;20014;-69
2023/09/23 12:55:35;;;;;;;3.05;1.17;;;;;;;;;;7373552;19;20031;-69
2023/09/23 12:58:00;;;;;;;3.25;1.30;;;;;;;;;;7373314;19;20019;-69
2023/09/23 13:00:26;;;;;;;1.95;0.95;;;;;;;;;;7373064;19;20014;-69
2023/09/23 13:02:52;;;;;;;4.97;1.38;;;;;;;;;;7371229;19;20011;-69
2023/09/23 13:05:17;;;;;;;3.30;1.10;;;;;;;;;;7373592;19;20416;-69
2023/09/23 13:07:43;;;;;;;5.10;1.75;;;;;;;;;;7393084;19;19991;-69
2023/09/23 13:10:12;;;;;;;3.38;1.20;;;;;;;;;;7373636;19;20006;-69
2023/09/23 13:12:40;;;;;;;4.47;1.58;;;;;;;;;;7371369;19;20007;-69
2023/09/23 13:15:07;;;;;;;2.33;1.30;;;;;;;;;;7372801;19;20002;-69
2023/09/23 13:17:32;;;;;;;3.88;1.20;;;;;;;;;;7373271;19;20083;-68
2023/09/23 13:19:58;;;;;;;4.90;1.55;;;;;;;;;;7395361;19;20330;-69
2023/09/23 13:22:23;;;;;;;4.43;1.50;;;;;;;;;;7370108;19;20011;-68
2023/09/23 13:24:49;;;;;;;3.40;1.40;;;;;;;;;;7372476;19;20017;-68
2023/09/23 13:27:15;;;;;;;1.95;1.08;;;;;;;;;;7371142;19;20753;-69
2023/09/23 13:29:40;;;;;;;4.07;1.60;;;;;;;;;;7372994;19;20010;-68
2023/09/23 13:32:05;;;;;;;5.20;1.65;;;;;;;;;;7392584;19;20006;-68
2023/09/23 13:34:31;;;;;;;3.03;1.40;;;;;;;;;;7370157;19;20014;-69
2023/09/23 13:36:56;;;;;;;3.45;1.40;;;;;;;;;;7372517;19;20014;-69
2023/09/23 13:39:22;;;;;;;4.18;1.30;;;;;;;;;;7373043;19;20538;-69
2023/09/23 13:41:47;;;;;;;5.70;1.50;;;;;;;;;;7371243;19;20016;-69
2023/09/23 13:44:12;;;;;;;2.33;1.33;;;;;;;;;;7394336;19;20015;-68
2023/09/23 13:46:37;;;;;;;3.53;1.50;;;;;;;;;;7383939;19;20034;-68
2023/09/23 13:49:04;;;;;;;3.22;1.30;;;;;;;;;;7385996;19;20013;-69
2023/09/23 13:51:30;;;;;;;4.90;1.60;;;;;;;;;;7379441;19;20025;-69
2023/09/23 13:53:55;;;;;;;10.13;5.63;;;;;;;;;;7373538;19;20010;-69
2023/09/23 13:56:20;;;;;;;6.03;2.80;;;;;;;;;;7372075;19;20010;-68
2023/09/23 13:58:45;;;;;;;3.22;1.60;;;;;;;;;;7394305;19;20015;-68
2023/09/23 14:01:11;;;;;;;3.35;1.27;;;;;;;;;;7371042;19;20017;-69
2023/09/23 14:03:36;;;;;;;3.42;1.50;;;;;;;;;;7370175;19;20007;-69
2023/09/23 14:06:03;;;;;;;2.25;1.30;;;;;;;;;;7370862;19;20015;-68
2023/09/23 14:08:28;;;;;;;3.00;1.55;;;;;;;;;;7369567;19;20123;-69
2023/09/23 14:10:55;;;;;;;3.03;1.35;;;;;;;;;;7392497;19;20025;-69
2023/09/23 14:13:20;;;;;;;4.25;1.42;;;;;;;;;;7367190;19;20006;-69
2023/09/23 14:15:46;;;;;;;2.65;1.27;;;;;;;;;;7370764;19;20116;-68
2023/09/23 14:18:11;;;;;;;4.07;1.60;;;;;;;;;;7371745;19;20010;-69
2023/09/23 14:20:37;;;;;;;4.00;1.58;;;;;;;;;;7371444;19;20046;-69
2023/09/23 14:23:02;;;;;;;2.33;1.30;;;;;;;;;;7389800;19;20370;-68
2023/09/23 14:25:28;;;;;;;3.10;1.42;;;;;;;;;;7369818;19;20007;-69
2023/09/23 14:27:53;;;;;;;3.05;1.60;;;;;;;;;;7368011;19;20034;-68
2023/09/23 14:30:19;;;;;;;5.18;1.75;;;;;;;;;;7370551;19;20011;-69
2023/09/23 14:32:45;;;;;;;3.38;1.58;;;;;;;;;;7369456;19;20046;-69
2023/09/23 14:35:10;;;;;;;4.53;1.73;;;;;;;;;;7392344;19;20361;-69
2023/09/23 14:37:36;;;;;;;3.15;1.40;;;;;;;;;;7370469;19;20006;-69
2023/09/23 14:40:02;;;;;;;7.65;1.80;;;;;;;;;;7370182;19;20487;-69
2023/09/23 14:42:27;;;;;;;5.57;1.90;;;;;;;;;;7367392;19;20012;-69